| Date | Time | Temp. (oF) | Dew Point (oF) | Rel. Hum. (%) | Press. (in.) | Wind Dir. | Wind Speed (mph) | Hourly Rainfall (in.) |
|
|---|---|---|---|---|---|---|---|---|---|
| 1 | 12/19 | 00:00 | 42 | 30 | 64 | 29.84 | NW | 7 | 0.00 |
| 2 | 12/18 | 23:00 | 43 | 31 | 63 | 29.84 | W | 12 | 0.00 |
| 3 | 12/18 | 22:00 | 43 | 30 | 62 | 29.81 | WNW | 8 | 0.00 |
| 4 | 12/18 | 21:00 | 42 | 29 | 62 | 29.80 | WSW | 6 | 0.00 |
| 5 | 12/18 | 20:00 | 42 | 29 | 62 | 29.78 | WNW | 9 | 0.00 |
| 6 | 12/18 | 19:00 | 43 | 30 | 60 | 29.77 | WNW | 9 | 0.00 |
| 7 | 12/18 | 18:00 | 43 | 30 | 61 | 29.75 | WNW | 7 | 0.00 |
| 8 | 12/18 | 17:00 | 44 | 31 | 61 | 29.72 | WNW | 10 | 0.00 |
| 9 | 12/18 | 16:00 | 45 | 31 | 60 | 29.68 | WNW | 18 | 0.00 |
| 10 | 12/18 | 15:00 | 47 | 32 | 56 | 29.66 | WNW | 12 | 0.00 |
| 11 | 12/18 | 14:00 | 49 | 33 | 55 | 29.60 | WNW | 28 | 0.00 |
| 12 | 12/18 | 13:00 | 49 | 36 | 61 | 29.59 | WNW | 10 | 0.00 |
| 13 | 12/18 | 12:00 | 48 | 37 | 67 | 29.57 | NW | 13 | 0.00 |
| 14 | 12/18 | 11:00 | 49 | 38 | 67 | 29.57 | WNW | 8 | 0.00 |
| 15 | 12/18 | 10:00 | 47 | 40 | 78 | 29.53 | WNW | 13 | 0.00 |
| 16 | 12/18 | 09:00 | 46 | 42 | 88 | 29.50 | W | 11 | 0.00 |
| 17 | 12/18 | 08:00 | 46 | 42 | 89 | 29.45 | NW | 11 | 0.00 |
| 18 | 12/18 | 07:00 | 45 | 43 | 93 | 29.41 | WNW | 11 | 0.01 |
| 19 | 12/18 | 06:00 | 46 | 44 | 95 | 29.36 | W | 15 | 0.00 |
| 20 | 12/18 | 05:00 | 54 | 53 | 97 | 29.27 | WNW | 25 | 0.00 |
| 21 | 12/18 | 04:00 | 56 | 55 | 99 | 29.25 | SSW | 6 | 0.00 |
| 22 | 12/18 | 03:00 | 56 | 55 | 99 | 29.28 | S | 13 | 0.00 |
| 23 | 12/18 | 02:00 | 56 | 55 | 100 | 29.30 | SW | 8 | 0.01 |
| 24 | 12/18 | 01:00 | 55 | 54 | 100 | 29.38 | S | 11 | 0.00 |